Details From GMAD - Al Massira
To GMMX - Menara
Flight Number -
Tags Generated
Created
Modified
Stats Distance 105 nm / 194 km
Max Altitude 0 ft / 0 m
Waypoints 2
Social Downloads 3
Likes 0
Share VATSIM

Download

Looking for another format? Having issues loading an existing format? Contact us
Advertisement - Login to hide

Notes

Generated

Route

GMAD GMMX

ID Type Via Altitude Latitude Longitude Leg Dist Tot Dist Heading (true) Name
O GMAD APT - 0 ft / 0 m 30.32539˚ -9.42970˚ - 0 nm - -
O GMMX APT - 0 ft / 0 m 31.60837˚ -8.05254˚ 104 nm 104 nm 42° / 43° -

Altitude Profile

Advertisement - Login to hide

GMAD

Details ICAO GMAD
Name Agadir AL MASSIRA
Region Morocco
Timezone Africa/Casablanca (UTC+0.0)
Stats Elevation 250 ft / 76 m (AMSL)
Location 30.322623° -9.411528°
Runways 1
Magnetic Variation 2.483° W

METAR

GMAD 110300Z 06007KT 9999 SCT016 09/07 Q1018 NOSIG

Decode

TAF

TAF GMAD 102300Z 1100/1206 06008KT 8000 SCT016 SCT100 BECMG 1111/1113 27012KT BKN016 BKN100 TEMPO 1116/1203 32016G26KT 3000 TSSHRA BKN016 SCT030CB BKN100

Decode

Departure Runways

ID Width Length Bearing (true) Bearing (mag) Surface Threshold Offset Overrun Length
10 148 ft / 45 m 10,509 ft / 3,203 m 91.58° 94.06° Asphalt 0 ft / 0 m 0 ft / 0 m
28 148 ft / 45 m 10,509 ft / 3,203 m 271.60° 274.08° Asphalt 0 ft / 0 m 0 ft / 0 m

GMMX

Details ICAO GMMX (RAK)
Name MENARA
Region Morocco
Timezone Africa/Casablanca (UTC+0.0)
Stats Elevation 1,545 ft / 471 m (AMSL)
Location 31.606920° -8.036265°
Runways 1
Magnetic Variation 2.000° W

METAR

GMMX 110300Z VRB01KT CAVOK 11/06 Q1015 NOSIG

Decode

TAF

TAF TAF GMMX 102300Z 1100/1206 24005KT 8000 NSC BECMG 1113/1115 SCT20 FEW026TCU BKN100 TEMPO 1115/1122 32016G26KT 4000 SHRA

Decode

Destination Runways

ID Width Length Bearing (true) Bearing (mag) Surface Threshold Offset Overrun Length
10 148 ft / 45 m 10,169 ft / 3,100 m 95.99° 97.99° Asphalt 918 ft / 280 m 0 ft / 0 m
28 148 ft / 45 m 10,169 ft / 3,100 m 276.00° 278.00° Asphalt 0 ft / 0 m 0 ft / 0 m

Approach Navaids

Runway Type Ident Frequency Range Bearing (true) Bearing (mag) Slope Elevation
10 Localiser MAR 109.70 MHz 18 nm / 33 km 96.03° 98.03° - 1,545 ft / 471 m (AMSL)
10 Glidescope MAR 109.70 MHz 10 nm / 19 km 96.00° 98.00° 3.00° 1,558 ft / 475 m (AMSL)

Popular Alternatives